sensor_id;sensor_type;location;lat;lon;timestamp;pressure;altitude;pressure_sealevel;temperature;humidity
6038;BME280;3047;42.600;23.470;2023-03-26T00:01:00;92535.59;;;10.48;93.43
6038;BME280;3047;42.600;23.470;2023-03-26T00:03:30;92532.31;;;10.46;93.30
6038;BME280;3047;42.600;23.470;2023-03-26T00:06:02;92544.06;;;10.47;92.86
6038;BME280;3047;42.600;23.470;2023-03-26T00:08:32;92553.16;;;10.51;93.88
6038;BME280;3047;42.600;23.470;2023-03-26T00:10:59;92576.34;;;10.62;92.30
6038;BME280;3047;42.600;23.470;2023-03-26T00:13:26;92578.25;;;10.56;92.34
6038;BME280;3047;42.600;23.470;2023-03-26T00:15:52;92559.41;;;10.41;91.97
6038;BME280;3047;42.600;23.470;2023-03-26T00:18:19;92572.09;;;10.39;93.11
6038;BME280;3047;42.600;23.470;2023-03-26T00:20:49;92576.53;;;10.33;93.63
6038;BME280;3047;42.600;23.470;2023-03-26T00:23:16;92581.00;;;10.26;94.19
6038;BME280;3047;42.600;23.470;2023-03-26T00:25:44;92575.31;;;10.20;94.06
6038;BME280;3047;42.600;23.470;2023-03-26T00:28:15;92562.66;;;10.21;94.79
6038;BME280;3047;42.600;23.470;2023-03-26T00:30:42;92553.19;;;10.28;93.59
6038;BME280;3047;42.600;23.470;2023-03-26T00:33:08;92554.81;;;10.29;93.60
6038;BME280;3047;42.600;23.470;2023-03-26T00:35:37;92551.03;;;10.17;94.07
6038;BME280;3047;42.600;23.470;2023-03-26T00:38:04;92545.47;;;10.07;94.38
6038;BME280;3047;42.600;23.470;2023-03-26T00:40:30;92539.94;;;9.98;95.21
6038;BME280;3047;42.600;23.470;2023-03-26T00:43:02;92534.34;;;10.13;94.56
6038;BME280;3047;42.600;23.470;2023-03-26T00:45:43;92528.84;;;10.02;94.01
6038;BME280;3047;42.600;23.470;2023-03-26T00:48:09;92520.91;;;9.89;95.06
6038;BME280;3047;42.600;23.470;2023-03-26T00:50:37;92495.00;;;9.84;95.46
6038;BME280;3047;42.600;23.470;2023-03-26T00:53:03;92514.09;;;9.91;95.51
6038;BME280;3047;42.600;23.470;2023-03-26T00:55:30;92530.72;;;9.97;96.85
6038;BME280;3047;42.600;23.470;2023-03-26T00:57:57;92528.03;;;10.01;96.01
6038;BME280;3047;42.600;23.470;2023-03-26T01:00:29;92532.09;;;10.05;95.39
6038;BME280;3047;42.600;23.470;2023-03-26T01:02:59;92531.81;;;10.13;94.77
6038;BME280;3047;42.600;23.470;2023-03-26T01:05:45;92530.69;;;10.20;93.41
6038;BME280;3047;42.600;23.470;2023-03-26T01:08:20;92530.16;;;10.12;93.59
6038;BME280;3047;42.600;23.470;2023-03-26T01:10:48;92535.16;;;10.13;92.91
6038;BME280;3047;42.600;23.470;2023-03-26T01:13:17;92521.22;;;10.03;93.03
6038;BME280;3047;42.600;23.470;2023-03-26T01:15:46;92529.16;;;10.16;93.78
6038;BME280;3047;42.600;23.470;2023-03-26T01:18:17;92535.81;;;10.19;94.64
6038;BME280;3047;42.600;23.470;2023-03-26T01:20:45;92540.31;;;10.10;93.20
6038;BME280;3047;42.600;23.470;2023-03-26T01:23:21;92529.19;;;9.93;93.53
6038;BME280;3047;42.600;23.470;2023-03-26T01:25:56;92551.50;;;10.03;94.24
6038;BME280;3047;42.600;23.470;2023-03-26T01:28:27;92517.75;;;9.82;94.30
6038;BME280;3047;42.600;23.470;2023-03-26T01:31:01;92559.69;;;10.10;93.98
6038;BME280;3047;42.600;23.470;2023-03-26T01:33:35;92565.22;;;10.20;93.41
6038;BME280;3047;42.600;23.470;2023-03-26T01:36:08;92568.63;;;10.19;92.47
6038;BME280;3047;42.600;23.470;2023-03-26T01:38:40;92561.94;;;10.18;91.93
6038;BME280;3047;42.600;23.470;2023-03-26T01:41:16;92567.56;;;10.26;90.84
6038;BME280;3047;42.600;23.470;2023-03-26T01:43:50;92576.72;;;10.28;90.63
6038;BME280;3047;42.600;23.470;2023-03-26T01:46:20;92574.25;;;10.27;91.51
6038;BME280;3047;42.600;23.470;2023-03-26T01:48:47;92567.56;;;10.26;91.75
6038;BME280;3047;42.600;23.470;2023-03-26T01:51:26;92570.09;;;10.24;91.39
6038;BME280;3047;42.600;23.470;2023-03-26T01:53:54;92580.59;;;10.37;91.01
6038;BME280;3047;42.600;23.470;2023-03-26T01:56:25;92560.75;;;10.28;91.34
6038;BME280;3047;42.600;23.470;2023-03-26T01:59:05;92494.56;;;9.73;92.22
6038;BME280;3047;42.600;23.470;2023-03-26T02:01:40;92574.31;;;10.24;93.16
6038;BME280;3047;42.600;23.470;2023-03-26T02:04:17;92572.44;;;10.30;93.84
6038;BME280;3047;42.600;23.470;2023-03-26T02:06:50;92576.53;;;10.33;93.17
6038;BME280;3047;42.600;23.470;2023-03-26T02:09:21;92577.31;;;10.35;93.34
6038;BME280;3047;42.600;23.470;2023-03-26T02:11:52;92582.13;;;10.41;92.99
6038;BME280;3047;42.600;23.470;2023-03-26T02:14:19;92580.66;;;10.35;92.55
6038;BME280;3047;42.600;23.470;2023-03-26T02:16:46;92570.81;;;10.29;93.34
6038;BME280;3047;42.600;23.470;2023-03-26T02:19:13;92586.44;;;10.39;92.82
6038;BME280;3047;42.600;23.470;2023-03-26T02:21:46;92568.53;;;10.22;93.92
6038;BME280;3047;42.600;23.470;2023-03-26T02:24:15;92587.00;;;10.22;94.24
6038;BME280;3047;42.600;23.470;2023-03-26T02:26:43;92582.16;;;10.16;94.41
6038;BME280;3047;42.600;23.470;2023-03-26T02:29:12;92581.44;;;10.12;93.95
6038;BME280;3047;42.600;23.470;2023-03-26T02:31:43;92574.84;;;10.08;94.90
6038;BME280;3047;42.600;23.470;2023-03-26T02:34:11;92570.03;;;10.02;95.52
6038;BME280;3047;42.600;23.470;2023-03-26T02:36:38;92549.63;;;9.85;96.02
6038;BME280;3047;42.600;23.470;2023-03-26T02:39:07;92568.41;;;10.01;95.50
6038;BME280;3047;42.600;23.470;2023-03-26T02:41:35;92570.09;;;10.01;95.12
6038;BME280;3047;42.600;23.470;2023-03-26T02:44:02;92556.25;;;9.87;95.64
6038;BME280;3047;42.600;23.470;2023-03-26T02:46:31;92574.34;;;9.99;95.46
6038;BME280;3047;42.600;23.470;2023-03-26T02:48:58;92516.53;;;9.69;95.63
6038;BME280;3047;42.600;23.470;2023-03-26T02:51:25;92562.69;;;9.71;97.15
6038;BME280;3047;42.600;23.470;2023-03-26T02:53:51;92569.50;;;9.69;97.96
6038;BME280;3047;42.600;23.470;2023-03-26T02:56:19;92576.84;;;9.75;98.14
6038;BME280;3047;42.600;23.470;2023-03-26T02:58:45;92577.47;;;9.82;97.49
6038;BME280;3047;42.600;23.470;2023-03-26T03:01:12;92577.78;;;9.73;98.08
6038;BME280;3047;42.600;23.470;2023-03-26T03:03:44;92577.91;;;9.68;98.30
6038;BME280;3047;42.600;23.470;2023-03-26T03:06:13;92588.78;;;9.70;97.47
6038;BME280;3047;42.600;23.470;2023-03-26T03:08:41;92598.22;;;9.63;98.41
6038;BME280;3047;42.600;23.470;2023-03-26T03:11:12;92604.16;;;9.62;98.68
6038;BME280;3047;42.600;23.470;2023-03-26T03:13:39;92575.69;;;9.59;98.66
6038;BME280;3047;42.600;23.470;2023-03-26T03:16:06;92585.78;;;9.59;99.00
6038;BME280;3047;42.600;23.470;2023-03-26T03:18:33;92597.31;;;9.66;98.89
6038;BME280;3047;42.600;23.470;2023-03-26T03:21:02;92534.78;;;9.26;98.69
6038;BME280;3047;42.600;23.470;2023-03-26T03:23:30;92604.06;;;9.65;98.63
6038;BME280;3047;42.600;23.470;2023-03-26T03:25:57;92619.34;;;9.61;98.21
6038;BME280;3047;42.600;23.470;2023-03-26T03:28:24;92617.81;;;9.57;98.69
6038;BME280;3047;42.600;23.470;2023-03-26T03:30:51;92619.69;;;9.50;98.88
6038;BME280;3047;42.600;23.470;2023-03-26T03:33:18;92625.53;;;9.51;99.67
6038;BME280;3047;42.600;23.470;2023-03-26T03:35:45;92621.84;;;9.36;100.00
6038;BME280;3047;42.600;23.470;2023-03-26T03:38:15;92640.28;;;9.36;100.00
6038;BME280;3047;42.600;23.470;2023-03-26T03:40:42;92627.78;;;9.33;100.00
6038;BME280;3047;42.600;23.470;2023-03-26T03:43:09;92635.88;;;9.43;100.00
6038;BME280;3047;42.600;23.470;2023-03-26T03:45:35;92629.41;;;9.36;100.00
6038;BME280;3047;42.600;23.470;2023-03-26T03:48:02;92605.47;;;9.21;100.00
6038;BME280;3047;42.600;23.470;2023-03-26T03:50:29;92625.16;;;9.36;100.00
6038;BME280;3047;42.600;23.470;2023-03-26T03:52:56;92605.16;;;9.32;100.00
6038;BME280;3047;42.600;23.470;2023-03-26T03:55:25;92615.31;;;9.29;100.00
6038;BME280;3047;42.600;23.470;2023-03-26T03:57:52;92597.50;;;9.07;100.00
6038;BME280;3047;42.600;23.470;2023-03-26T04:00:19;92629.06;;;9.19;100.00
6038;BME280;3047;42.600;23.470;2023-03-26T04:02:46;92624.00;;;9.20;100.00
6038;BME280;3047;42.600;23.470;2023-03-26T04:05:13;92616.03;;;9.06;100.00
6038;BME280;3047;42.600;23.470;2023-03-26T04:07:40;92631.00;;;9.10;100.00
6038;BME280;3047;42.600;23.470;2023-03-26T04:10:08;92637.50;;;9.18;100.00
6038;BME280;3047;42.600;23.470;2023-03-26T04:12:36;92638.16;;;9.24;100.00
6038;BME280;3047;42.600;23.470;2023-03-26T04:15:04;92637.28;;;9.25;100.00
6038;BME280;3047;42.600;23.470;2023-03-26T04:17:31;92634.94;;;9.19;100.00
6038;BME280;3047;42.600;23.470;2023-03-26T04:19:57;92624.25;;;9.11;100.00
6038;BME280;3047;42.600;23.470;2023-03-26T04:22:31;92651.75;;;9.19;100.00
6038;BME280;3047;42.600;23.470;2023-03-26T04:24:59;92658.56;;;9.15;100.00
6038;BME280;3047;42.600;23.470;2023-03-26T04:27:29;92648.91;;;9.01;100.00
6038;BME280;3047;42.600;23.470;2023-03-26T04:30:01;92610.66;;;8.60;100.00
6038;BME280;3047;42.600;23.470;2023-03-26T04:32:30;92680.56;;;9.10;100.00
6038;BME280;3047;42.600;23.470;2023-03-26T04:34:58;92671.97;;;9.17;100.00
6038;BME280;3047;42.600;23.470;2023-03-26T04:37:29;92663.94;;;9.04;100.00
6038;BME280;3047;42.600;23.470;2023-03-26T04:39:58;92682.94;;;9.14;100.00
6038;BME280;3047;42.600;23.470;2023-03-26T04:42:26;92657.16;;;9.06;100.00
6038;BME280;3047;42.600;23.470;2023-03-26T04:44:54;92695.31;;;9.22;100.00
6038;BME280;3047;42.600;23.470;2023-03-26T04:47:25;92699.53;;;9.22;100.00
6038;BME280;3047;42.600;23.470;2023-03-26T04:49:53;92689.47;;;9.22;100.00
6038;BME280;3047;42.600;23.470;2023-03-26T04:52:20;92701.84;;;9.29;100.00
6038;BME280;3047;42.600;23.470;2023-03-26T04:54:46;92705.22;;;9.28;100.00
6038;BME280;3047;42.600;23.470;2023-03-26T04:57:16;92703.00;;;9.18;100.00
6038;BME280;3047;42.600;23.470;2023-03-26T04:59:44;92713.78;;;9.23;100.00
6038;BME280;3047;42.600;23.470;2023-03-26T05:02:11;92694.34;;;9.26;100.00
6038;BME280;3047;42.600;23.470;2023-03-26T05:04:40;92714.44;;;9.29;100.00
6038;BME280;3047;42.600;23.470;2023-03-26T05:07:09;92713.63;;;9.27;100.00
6038;BME280;3047;42.600;23.470;2023-03-26T05:09:36;92713.75;;;9.24;100.00
6038;BME280;3047;42.600;23.470;2023-03-26T05:12:03;92709.34;;;9.31;100.00
6038;BME280;3047;42.600;23.470;2023-03-26T05:14:30;92717.59;;;9.36;100.00
6038;BME280;3047;42.600;23.470;2023-03-26T05:16:56;92722.41;;;9.44;100.00
6038;BME280;3047;42.600;23.470;2023-03-26T05:19:23;92735.88;;;9.43;100.00
6038;BME280;3047;42.600;23.470;2023-03-26T05:21:51;92725.63;;;9.49;100.00
6038;BME280;3047;42.600;23.470;2023-03-26T05:24:18;92733.22;;;9.47;100.00
6038;BME280;3047;42.600;23.470;2023-03-26T05:26:45;92734.75;;;9.53;99.82
6038;BME280;3047;42.600;23.470;2023-03-26T05:29:13;92733.13;;;9.50;98.08
6038;BME280;3047;42.600;23.470;2023-03-26T05:31:42;92743.44;;;9.43;97.60
6038;BME280;3047;42.600;23.470;2023-03-26T05:34:09;92738.53;;;9.38;97.64
6038;BME280;3047;42.600;23.470;2023-03-26T05:36:36;92731.88;;;9.35;96.92
6038;BME280;3047;42.600;23.470;2023-03-26T05:39:04;92747.56;;;9.45;96.15
6038;BME280;3047;42.600;23.470;2023-03-26T05:41:31;92745.00;;;9.47;96.42
6038;BME280;3047;42.600;23.470;2023-03-26T05:43:57;92749.72;;;9.57;95.10
6038;BME280;3047;42.600;23.470;2023-03-26T05:46:24;92747.13;;;9.60;95.20
6038;BME280;3047;42.600;23.470;2023-03-26T05:48:51;92744.09;;;9.49;95.94
6038;BME280;3047;42.600;23.470;2023-03-26T05:51:18;92743.16;;;9.52;96.55
6038;BME280;3047;42.600;23.470;2023-03-26T05:53:45;92748.94;;;9.55;96.04
6038;BME280;3047;42.600;23.470;2023-03-26T05:56:13;92753.25;;;9.52;95.72
6038;BME280;3047;42.600;23.470;2023-03-26T05:58:40;92751.78;;;9.45;96.38
6038;BME280;3047;42.600;23.470;2023-03-26T06:01:09;92757.47;;;9.51;96.48
6038;BME280;3047;42.600;23.470;2023-03-26T06:03:42;92759.13;;;9.52;96.57
6038;BME280;3047;42.600;23.470;2023-03-26T06:06:11;92744.22;;;9.45;97.45
6038;BME280;3047;42.600;23.470;2023-03-26T06:08:40;92744.91;;;9.50;98.01
6038;BME280;3047;42.600;23.470;2023-03-26T06:11:07;92696.94;;;9.51;98.07
6038;BME280;3047;42.600;23.470;2023-03-26T06:13:36;92730.69;;;10.02;95.58
6038;BME280;3047;42.600;23.470;2023-03-26T06:16:02;92704.66;;;10.00;95.22
6038;BME280;3047;42.600;23.470;2023-03-26T06:18:29;92750.28;;;10.47;93.17
6038;BME280;3047;42.600;23.470;2023-03-26T06:20:56;92745.31;;;10.69;92.48
6038;BME280;3047;42.600;23.470;2023-03-26T06:23:23;92738.50;;;10.96;89.71
6038;BME280;3047;42.600;23.470;2023-03-26T06:25:49;92735.63;;;11.05;88.91
6038;BME280;3047;42.600;23.470;2023-03-26T06:28:17;92742.75;;;11.17;87.00
6038;BME280;3047;42.600;23.470;2023-03-26T06:30:45;92682.44;;;10.84;85.82
6038;BME280;3047;42.600;23.470;2023-03-26T06:33:11;92743.09;;;11.31;84.50
6038;BME280;3047;42.600;23.470;2023-03-26T06:35:38;92755.56;;;11.36;84.09
6038;BME280;3047;42.600;23.470;2023-03-26T06:38:07;92757.06;;;11.63;83.85
6038;BME280;3047;42.600;23.470;2023-03-26T06:40:34;92759.19;;;11.74;80.84
6038;BME280;3047;42.600;23.470;2023-03-26T06:43:00;92751.84;;;11.90;79.61
6038;BME280;3047;42.600;23.470;2023-03-26T06:45:27;92759.16;;;12.20;77.30
6038;BME280;3047;42.600;23.470;2023-03-26T06:47:56;92758.13;;;12.24;76.61
6038;BME280;3047;42.600;23.470;2023-03-26T06:50:22;92736.16;;;12.04;76.65
6038;BME280;3047;42.600;23.470;2023-03-26T06:52:52;92767.47;;;12.44;77.24
6038;BME280;3047;42.600;23.470;2023-03-26T06:55:19;92763.94;;;12.48;75.61
6038;BME280;3047;42.600;23.470;2023-03-26T06:57:47;92766.81;;;12.38;75.26
6038;BME280;3047;42.600;23.470;2023-03-26T07:00:15;92774.41;;;12.38;76.04
6038;BME280;3047;42.600;23.470;2023-03-26T07:02:41;92768.53;;;12.38;76.67
6038;BME280;3047;42.600;23.470;2023-03-26T07:05:10;92772.69;;;12.39;76.44
6038;BME280;3047;42.600;23.470;2023-03-26T07:07:37;92769.03;;;12.46;76.16
6038;BME280;3047;42.600;23.470;2023-03-26T07:10:04;92747.63;;;12.33;75.85
6038;BME280;3047;42.600;23.470;2023-03-26T07:12:31;92748.88;;;12.43;73.39
6038;BME280;3047;42.600;23.470;2023-03-26T07:14:58;92790.50;;;12.58;71.86
6038;BME280;3047;42.600;23.470;2023-03-26T07:17:25;92785.44;;;12.37;71.86
6038;BME280;3047;42.600;23.470;2023-03-26T07:19:52;92757.19;;;12.26;73.46
6038;BME280;3047;42.600;23.470;2023-03-26T07:22:22;92773.78;;;12.74;71.33
6038;BME280;3047;42.600;23.470;2023-03-26T07:24:49;92771.44;;;12.90;68.79
6038;BME280;3047;42.600;23.470;2023-03-26T07:27:32;92779.78;;;12.92;68.10
6038;BME280;3047;42.600;23.470;2023-03-26T07:30:05;92752.59;;;12.96;69.31
6038;BME280;3047;42.600;23.470;2023-03-26T07:32:39;92773.25;;;13.07;69.03
6038;BME280;3047;42.600;23.470;2023-03-26T07:35:13;92762.06;;;13.31;66.63
6038;BME280;3047;42.600;23.470;2023-03-26T07:37:51;92749.31;;;13.52;64.98
6038;BME280;3047;42.600;23.470;2023-03-26T07:40:36;92754.59;;;13.66;64.05
6038;BME280;3047;42.600;23.470;2023-03-26T07:43:17;92727.25;;;13.54;65.00
6038;BME280;3047;42.600;23.470;2023-03-26T07:45:48;92752.31;;;13.98;63.79
6038;BME280;3047;42.600;23.470;2023-03-26T07:48:17;92754.28;;;14.27;62.69
6038;BME280;3047;42.600;23.470;2023-03-26T07:50:46;92756.97;;;14.24;61.55
6038;BME280;3047;42.600;23.470;2023-03-26T07:53:15;92761.69;;;14.32;59.67
6038;BME280;3047;42.600;23.470;2023-03-26T07:55:48;92749.66;;;14.35;58.88
6038;BME280;3047;42.600;23.470;2023-03-26T07:58:33;92758.28;;;14.50;59.05
6038;BME280;3047;42.600;23.470;2023-03-26T08:01:06;92764.91;;;14.70;59.59
6038;BME280;3047;42.600;23.470;2023-03-26T08:03:55;92750.75;;;14.99;54.20
6038;BME280;3047;42.600;23.470;2023-03-26T08:06:30;92754.72;;;15.05;54.81
6038;BME280;3047;42.600;23.470;2023-03-26T08:09:06;92693.88;;;14.84;53.79
6038;BME280;3047;42.600;23.470;2023-03-26T08:11:43;92735.38;;;15.18;51.94
6038;BME280;3047;42.600;23.470;2023-03-26T08:14:29;92732.38;;;15.10;53.12
6038;BME280;3047;42.600;23.470;2023-03-26T08:17:01;92743.28;;;14.96;52.58
6038;BME280;3047;42.600;23.470;2023-03-26T08:19:39;92736.66;;;14.76;52.54
6038;BME280;3047;42.600;23.470;2023-03-26T08:22:12;92733.44;;;14.73;50.69
6038;BME280;3047;42.600;23.470;2023-03-26T08:24:50;92737.56;;;14.58;52.90
6038;BME280;3047;42.600;23.470;2023-03-26T08:27:28;92737.59;;;14.22;52.99
6038;BME280;3047;42.600;23.470;2023-03-26T08:30:07;92658.22;;;13.65;53.83
6038;BME280;3047;42.600;23.470;2023-03-26T08:32:35;92721.16;;;14.12;55.59
6038;BME280;3047;42.600;23.470;2023-03-26T08:35:02;92737.13;;;14.14;53.65
6038;BME280;3047;42.600;23.470;2023-03-26T08:37:29;92738.72;;;13.99;53.46
6038;BME280;3047;42.600;23.470;2023-03-26T08:39:57;92738.72;;;13.99;53.91
6038;BME280;3047;42.600;23.470;2023-03-26T08:42:56;92741.50;;;13.93;53.44
6038;BME280;3047;42.600;23.470;2023-03-26T08:45:56;92689.34;;;13.68;53.40
6038;BME280;3047;42.600;23.470;2023-03-26T08:48:47;92721.19;;;13.93;53.54
6038;BME280;3047;42.600;23.470;2023-03-26T08:54:46;92741.75;;;14.59;52.77
6038;BME280;3047;42.600;23.470;2023-03-26T08:57:56;92739.94;;;14.78;52.00
6038;BME280;3047;42.600;23.470;2023-03-26T09:00:38;92720.06;;;15.02;52.18
6038;BME280;3047;42.600;23.470;2023-03-26T09:06:24;92706.31;;;15.22;48.21
6038;BME280;3047;42.600;23.470;2023-03-26T09:09:19;92735.09;;;15.56;49.31
6038;BME280;3047;42.600;23.470;2023-03-26T09:12:31;92747.03;;;15.71;48.93
6038;BME280;3047;42.600;23.470;2023-03-26T09:22:03;92745.00;;;16.24;43.76
6038;BME280;3047;42.600;23.470;2023-03-26T09:27:34;92727.69;;;15.99;46.25
6038;BME280;3047;42.600;23.470;2023-03-26T09:30:20;92715.69;;;16.17;47.08
6038;BME280;3047;42.600;23.470;2023-03-26T09:33:22;92719.97;;;16.46;45.18
6038;BME280;3047;42.600;23.470;2023-03-26T09:36:10;92678.47;;;16.28;44.27
6038;BME280;3047;42.600;23.470;2023-03-26T09:38:45;92718.69;;;16.23;45.54
6038;BME280;3047;42.600;23.470;2023-03-26T09:41:29;92720.72;;;16.02;46.01
6038;BME280;3047;42.600;23.470;2023-03-26T09:47:32;92682.19;;;15.93;46.18
6038;BME280;3047;42.600;23.470;2023-03-26T09:50:14;92714.66;;;16.05;45.27
6038;BME280;3047;42.600;23.470;2023-03-26T09:52:57;92725.25;;;15.97;45.22
6038;BME280;3047;42.600;23.470;2023-03-26T09:55:54;92715.09;;;16.12;45.72
6038;BME280;3047;42.600;23.470;2023-03-26T09:58:44;92722.38;;;16.34;44.67
6038;BME280;3047;42.600;23.470;2023-03-26T10:01:21;92707.47;;;16.42;45.09
6038;BME280;3047;42.600;23.470;2023-03-26T10:03:59;92699.41;;;16.49;44.72
6038;BME280;3047;42.600;23.470;2023-03-26T10:06:35;92693.31;;;16.66;41.24
6038;BME280;3047;42.600;23.470;2023-03-26T10:09:34;92697.91;;;16.75;40.67
6038;BME280;3047;42.600;23.470;2023-03-26T10:12:18;92689.03;;;16.67;40.73
6038;BME280;3047;42.600;23.470;2023-03-26T10:14:54;92682.84;;;16.71;41.62
6038;BME280;3047;42.600;23.470;2023-03-26T10:17:36;92677.34;;;16.78;41.46
6038;BME280;3047;42.600;23.470;2023-03-26T10:20:24;92642.31;;;16.66;42.52
6038;BME280;3047;42.600;23.470;2023-03-26T10:23:03;92669.75;;;16.77;43.14
6038;BME280;3047;42.600;23.470;2023-03-26T10:25:51;92668.88;;;16.78;43.63
6038;BME280;3047;42.600;23.470;2023-03-26T10:28:34;92667.13;;;16.78;42.69
6038;BME280;3047;42.600;23.470;2023-03-26T10:31:16;92651.44;;;16.85;43.61
6038;BME280;3047;42.600;23.470;2023-03-26T10:33:55;92636.13;;;16.85;43.04
6038;BME280;3047;42.600;23.470;2023-03-26T10:36:33;92588.59;;;16.69;43.35
6038;BME280;3047;42.600;23.470;2023-03-26T10:39:32;92641.69;;;17.20;43.58
6038;BME280;3047;42.600;23.470;2023-03-26T10:42:14;92635.94;;;17.30;40.98
6038;BME280;3047;42.600;23.470;2023-03-26T10:45:12;92635.28;;;17.27;39.66
6038;BME280;3047;42.600;23.470;2023-03-26T10:48:02;92627.00;;;17.23;39.65
6038;BME280;3047;42.600;23.470;2023-03-26T10:53:33;92618.06;;;17.16;39.46
6038;BME280;3047;42.600;23.470;2023-03-26T10:56:08;92631.81;;;17.28;39.31
6038;BME280;3047;42.600;23.470;2023-03-26T10:58:39;92628.28;;;17.30;39.78
6038;BME280;3047;42.600;23.470;2023-03-26T11:01:13;92623.88;;;17.33;39.46
6038;BME280;3047;42.600;23.470;2023-03-26T11:03:49;92617.66;;;17.37;39.04
6038;BME280;3047;42.600;23.470;2023-03-26T11:06:35;92606.28;;;17.42;40.60
6038;BME280;3047;42.600;23.470;2023-03-26T11:09:17;92611.47;;;17.41;39.83
6038;BME280;3047;42.600;23.470;2023-03-26T11:11:51;92604.06;;;17.50;38.56
6038;BME280;3047;42.600;23.470;2023-03-26T11:14:27;92603.09;;;17.39;39.89
6038;BME280;3047;42.600;23.470;2023-03-26T11:17:01;92581.28;;;17.33;38.94
6038;BME280;3047;42.600;23.470;2023-03-26T11:19:34;92595.53;;;17.64;40.05
6038;BME280;3047;42.600;23.470;2023-03-26T11:22:09;92598.88;;;17.65;38.88
6038;BME280;3047;42.600;23.470;2023-03-26T11:24:55;92605.81;;;17.77;39.45
6038;BME280;3047;42.600;23.470;2023-03-26T11:27:34;92605.91;;;17.75;38.15
6038;BME280;3047;42.600;23.470;2023-03-26T11:30:17;92599.72;;;17.92;38.36
6038;BME280;3047;42.600;23.470;2023-03-26T11:32:52;92586.94;;;17.92;38.35
6038;BME280;3047;42.600;23.470;2023-03-26T11:35:25;92564.75;;;17.80;37.94
6038;BME280;3047;42.600;23.470;2023-03-26T11:37:53;92590.19;;;17.94;40.00
6038;BME280;3047;42.600;23.470;2023-03-26T11:40:24;92602.06;;;17.83;39.15
6038;BME280;3047;42.600;23.470;2023-03-26T11:42:56;92588.97;;;17.87;38.44
6038;BME280;3047;42.600;23.470;2023-03-26T11:45:28;92581.22;;;17.89;39.99
6038;BME280;3047;42.600;23.470;2023-03-26T11:48:00;92578.06;;;17.98;37.45
6038;BME280;3047;42.600;23.470;2023-03-26T11:50:31;92573.38;;;18.04;36.21
6038;BME280;3047;42.600;23.470;2023-03-26T11:53:09;92550.56;;;18.01;34.20
6038;BME280;3047;42.600;23.470;2023-03-26T11:55:38;92532.88;;;17.98;34.81
6038;BME280;3047;42.600;23.470;2023-03-26T11:58:21;92542.50;;;18.20;35.21
6038;BME280;3047;42.600;23.470;2023-03-26T12:00:51;92526.66;;;18.15;32.80
6038;BME280;3047;42.600;23.470;2023-03-26T12:03:19;92520.63;;;18.16;32.65
6038;BME280;3047;42.600;23.470;2023-03-26T12:05:48;92521.84;;;18.23;34.94
6038;BME280;3047;42.600;23.470;2023-03-26T12:08:20;92520.72;;;18.27;33.61
6038;BME280;3047;42.600;23.470;2023-03-26T12:10:58;92515.41;;;18.18;34.83
6038;BME280;3047;42.600;23.470;2023-03-26T12:13:28;92515.41;;;18.18;33.54
6038;BME280;3047;42.600;23.470;2023-03-26T12:16:09;92509.97;;;17.97;34.00
6038;BME280;3047;42.600;23.470;2023-03-26T12:18:38;92517.13;;;17.92;33.96
6038;BME280;3047;42.600;23.470;2023-03-26T12:21:12;92519.06;;;17.88;33.77
6038;BME280;3047;42.600;23.470;2023-03-26T12:23:52;92522.63;;;17.86;33.67
6038;BME280;3047;42.600;23.470;2023-03-26T12:26:29;92503.13;;;17.85;32.78
6038;BME280;3047;42.600;23.470;2023-03-26T12:29:04;92508.34;;;17.96;33.54
6038;BME280;3047;42.600;23.470;2023-03-26T12:31:44;92498.94;;;17.96;32.46
6038;BME280;3047;42.600;23.470;2023-03-26T12:34:16;92472.16;;;17.89;31.88
6038;BME280;3047;42.600;23.470;2023-03-26T12:36:52;92475.75;;;17.87;31.68
6038;BME280;3047;42.600;23.470;2023-03-26T12:39:28;92477.47;;;17.86;32.57
6038;BME280;3047;42.600;23.470;2023-03-26T12:41:57;92487.72;;;17.99;32.40
6038;BME280;3047;42.600;23.470;2023-03-26T12:44:28;92485.34;;;17.96;30.21
6038;BME280;3047;42.600;23.470;2023-03-26T12:47:14;92480.31;;;17.94;31.50
6038;BME280;3047;42.600;23.470;2023-03-26T12:49:45;92478.38;;;17.98;33.43
6038;BME280;3047;42.600;23.470;2023-03-26T12:52:40;92473.28;;;17.85;32.00
6038;BME280;3047;42.600;23.470;2023-03-26T12:55:27;92425.53;;;17.60;30.62
6038;BME280;3047;42.600;23.470;2023-03-26T12:58:06;92472.78;;;17.93;30.75
6038;BME280;3047;42.600;23.470;2023-03-26T13:00:47;92462.34;;;17.96;31.73
6038;BME280;3047;42.600;23.470;2023-03-26T13:03:26;92460.50;;;17.98;31.18
6038;BME280;3047;42.600;23.470;2023-03-26T13:06:15;92451.72;;;18.02;30.86
6038;BME280;3047;42.600;23.470;2023-03-26T13:11:48;92434.72;;;17.63;31.11
6038;BME280;3047;42.600;23.470;2023-03-26T13:14:36;92460.69;;;17.82;31.39
6038;BME280;3047;42.600;23.470;2023-03-26T13:17:14;92451.88;;;17.73;28.34
6038;BME280;3047;42.600;23.470;2023-03-26T13:19:48;92437.47;;;17.72;27.88
6038;BME280;3047;42.600;23.470;2023-03-26T13:22:25;92442.47;;;17.74;29.17
6038;BME280;3047;42.600;23.470;2023-03-26T13:25:00;92444.94;;;17.63;27.73
6038;BME280;3047;42.600;23.470;2023-03-26T13:27:38;92442.41;;;17.63;29.46
6038;BME280;3047;42.600;23.470;2023-03-26T13:30:17;92439.00;;;17.62;26.85
6038;BME280;3047;42.600;23.470;2023-03-26T13:32:57;92357.16;;;17.13;28.87
6038;BME280;3047;42.600;23.470;2023-03-26T13:35:32;92437.06;;;17.53;29.32
6038;BME280;3047;42.600;23.470;2023-03-26T13:38:08;92436.53;;;17.48;29.89
6038;BME280;3047;42.600;23.470;2023-03-26T13:40:46;92424.78;;;17.33;28.43
6038;BME280;3047;42.600;23.470;2023-03-26T13:43:23;92436.94;;;17.42;28.07
6038;BME280;3047;42.600;23.470;2023-03-26T13:45:57;92442.50;;;17.21;27.84
6038;BME280;3047;42.600;23.470;2023-03-26T13:48:29;92451.34;;;17.30;26.46
6038;BME280;3047;42.600;23.470;2023-03-26T13:51:03;92398.38;;;16.94;27.46
6038;BME280;3047;42.600;23.470;2023-03-26T13:53:37;92439.28;;;17.32;27.20
6038;BME280;3047;42.600;23.470;2023-03-26T13:56:09;92431.00;;;17.28;27.09
6038;BME280;3047;42.600;23.470;2023-03-26T13:58:42;92434.16;;;17.19;27.99
6038;BME280;3047;42.600;23.470;2023-03-26T14:01:13;92426.31;;;17.22;27.68
6038;BME280;3047;42.600;23.470;2023-03-26T14:03:49;92418.88;;;17.05;27.67
6038;BME280;3047;42.600;23.470;2023-03-26T14:06:37;92412.75;;;16.95;28.15
6038;BME280;3047;42.600;23.470;2023-03-26T14:09:11;92413.84;;;16.91;29.20